sensor_id;sensor_type;location;lat;lon;timestamp;pressure;altitude;pressure_sealevel;temperature;humidity
73558;BME280;61829;53.286;10.434;2022-09-01T00:02:06;102182.72;;;13.64;68.98
73558;BME280;61829;53.286;10.434;2022-09-01T00:04:37;102191.00;;;13.63;69.28
73558;BME280;61829;53.286;10.434;2022-09-01T00:07:07;102186.75;;;13.60;69.54
73558;BME280;61829;53.286;10.434;2022-09-01T00:09:34;102191.19;;;13.53;69.56
73558;BME280;61829;53.286;10.434;2022-09-01T00:12:01;102192.03;;;13.54;69.84
73558;BME280;61829;53.286;10.434;2022-09-01T00:14:32;102187.81;;;13.51;70.05
73558;BME280;61829;53.286;10.434;2022-09-01T00:17:01;102182.53;;;13.50;70.02
73558;BME280;61829;53.286;10.434;2022-09-01T00:19:28;102186.28;;;13.48;70.43
73558;BME280;61829;53.286;10.434;2022-09-01T00:21:54;102183.22;;;13.43;70.62
73558;BME280;61829;53.286;10.434;2022-09-01T00:24:21;102185.59;;;13.38;71.26
73558;BME280;61829;53.286;10.434;2022-09-01T00:26:47;102186.63;;;13.37;71.10
73558;BME280;61829;53.286;10.434;2022-09-01T00:29:14;102183.22;;;13.35;71.68
73558;BME280;61829;53.286;10.434;2022-09-01T00:31:41;102189.66;;;13.26;72.21
73558;BME280;61829;53.286;10.434;2022-09-01T00:34:07;102185.59;;;13.22;72.24
73558;BME280;61829;53.286;10.434;2022-09-01T00:36:34;102184.25;;;13.26;71.89
73558;BME280;61829;53.286;10.434;2022-09-01T00:39:01;102181.56;;;13.26;72.02
73558;BME280;61829;53.286;10.434;2022-09-01T00:41:28;102168.00;;;13.26;72.18
73558;BME280;61829;53.286;10.434;2022-09-01T00:43:58;102176.81;;;13.28;71.98
73558;BME280;61829;53.286;10.434;2022-09-01T00:46:28;102176.47;;;13.31;71.64
73558;BME280;61829;53.286;10.434;2022-09-01T00:49:09;102178.84;;;13.34;71.91
73558;BME280;61829;53.286;10.434;2022-09-01T00:51:37;102176.97;;;13.35;71.29
73558;BME280;61829;53.286;10.434;2022-09-01T00:54:07;102174.41;;;13.33;71.83
73558;BME280;61829;53.286;10.434;2022-09-01T00:56:40;102176.47;;;13.31;71.57
73558;BME280;61829;53.286;10.434;2022-09-01T00:59:08;102169.00;;;13.33;71.78
73558;BME280;61829;53.286;10.434;2022-09-01T01:01:36;102163.94;;;13.30;71.46
73558;BME280;61829;53.286;10.434;2022-09-01T01:04:04;102169.53;;;13.29;71.79
73558;BME280;61829;53.286;10.434;2022-09-01T01:06:31;102170.34;;;13.21;72.43
73558;BME280;61829;53.286;10.434;2022-09-01T01:09:32;102180.81;;;13.08;73.21
73558;BME280;61829;53.286;10.434;2022-09-01T01:12:01;102172.38;;;12.94;73.62
73558;BME280;61829;53.286;10.434;2022-09-01T01:14:28;102172.69;;;12.83;73.83
73558;BME280;61829;53.286;10.434;2022-09-01T01:16:59;102172.69;;;12.83;74.38
73558;BME280;61829;53.286;10.434;2022-09-01T01:25:20;102169.44;;;12.63;75.83
73558;BME280;61829;53.286;10.434;2022-09-01T01:27:47;102173.31;;;12.61;75.33
73558;BME280;61829;53.286;10.434;2022-09-01T01:30:14;102171.09;;;12.56;75.49
73558;BME280;61829;53.286;10.434;2022-09-01T01:32:43;102171.78;;;12.58;75.08
73558;BME280;61829;53.286;10.434;2022-09-01T01:35:14;102173.31;;;12.61;74.90
73558;BME280;61829;53.286;10.434;2022-09-01T01:37:45;102177.38;;;12.65;74.81
73558;BME280;61829;53.286;10.434;2022-09-01T01:40:14;102179.25;;;12.64;75.54
73558;BME280;61829;53.286;10.434;2022-09-01T01:42:43;102173.84;;;12.64;75.35
73558;BME280;61829;53.286;10.434;2022-09-01T01:45:12;102179.25;;;12.64;75.46
73558;BME280;61829;53.286;10.434;2022-09-01T01:47:43;102173.34;;;12.69;75.13
73558;BME280;61829;53.286;10.434;2022-09-01T01:50:12;102173.84;;;12.72;75.12
73558;BME280;61829;53.286;10.434;2022-09-01T01:52:39;102174.53;;;12.74;75.16
73558;BME280;61829;53.286;10.434;2022-09-01T01:55:07;102169.97;;;12.75;75.10
73558;BME280;61829;53.286;10.434;2022-09-01T01:57:39;102164.56;;;12.75;74.73
73558;BME280;61829;53.286;10.434;2022-09-01T02:00:07;102168.09;;;12.75;75.41
73558;BME280;61829;53.286;10.434;2022-09-01T02:02:34;102165.41;;;12.75;74.74
73558;BME280;61829;53.286;10.434;2022-09-01T02:05:02;102172.50;;;12.76;74.25
73558;BME280;61829;53.286;10.434;2022-09-01T02:07:29;102181.63;;;12.75;74.96
73558;BME280;61829;53.286;10.434;2022-09-01T02:09:57;102178.25;;;12.73;74.75
73558;BME280;61829;53.286;10.434;2022-09-01T02:12:23;102177.72;;;12.70;74.88
73558;BME280;61829;53.286;10.434;2022-09-01T02:14:49;102179.41;;;12.71;75.16
73558;BME280;61829;53.286;10.434;2022-09-01T02:17:20;102171.63;;;12.68;75.22
73558;BME280;61829;53.286;10.434;2022-09-01T02:19:46;102167.41;;;12.65;75.27
73558;BME280;61829;53.286;10.434;2022-09-01T02:22:13;102167.59;;;12.64;75.60
73558;BME280;61829;53.286;10.434;2022-09-01T02:24:39;102162.16;;;12.64;75.21
73558;BME280;61829;53.286;10.434;2022-09-01T02:27:09;102169.59;;;12.62;76.28
73558;BME280;61829;53.286;10.434;2022-09-01T02:29:35;102171.28;;;12.54;77.09
73558;BME280;61829;53.286;10.434;2022-09-01T02:32:01;102169.72;;;12.44;77.57
73558;BME280;61829;53.286;10.434;2022-09-01T02:34:27;102163.94;;;12.30;78.11
73558;BME280;61829;53.286;10.434;2022-09-01T02:36:55;102167.81;;;12.28;77.83
73558;BME280;61829;53.286;10.434;2022-09-01T02:39:25;102165.44;;;12.25;78.05
73558;BME280;61829;53.286;10.434;2022-09-01T02:41:52;102170.13;;;12.23;79.14
73558;BME280;61829;53.286;10.434;2022-09-01T02:44:18;102171.81;;;12.16;79.50
73558;BME280;61829;53.286;10.434;2022-09-01T02:46:47;102165.19;;;12.10;79.30
73558;BME280;61829;53.286;10.434;2022-09-01T02:49:18;102166.22;;;12.09;79.73
73558;BME280;61829;53.286;10.434;2022-09-01T02:51:48;102163.00;;;12.13;78.37
73558;BME280;61829;53.286;10.434;2022-09-01T02:54:17;102161.69;;;12.18;78.21
73558;BME280;61829;53.286;10.434;2022-09-01T02:56:44;102163.06;;;12.22;78.55
73558;BME280;61829;53.286;10.434;2022-09-01T02:59:20;102165.28;;;12.26;78.24
73558;BME280;61829;53.286;10.434;2022-09-01T03:01:49;102171.19;;;12.30;77.85
73558;BME280;61829;53.286;10.434;2022-09-01T03:04:16;102173.91;;;12.30;78.58
73558;BME280;61829;53.286;10.434;2022-09-01T03:06:42;102170.34;;;12.29;78.09
73558;BME280;61829;53.286;10.434;2022-09-01T03:09:12;102170.19;;;12.31;77.42
73558;BME280;61829;53.286;10.434;2022-09-01T03:11:42;102169.34;;;12.30;77.57
73558;BME280;61829;53.286;10.434;2022-09-01T03:14:08;102168.50;;;12.30;77.92
73558;BME280;61829;53.286;10.434;2022-09-01T03:16:35;102173.22;;;12.28;78.13
73558;BME280;61829;53.286;10.434;2022-09-01T03:19:02;102171.53;;;12.27;77.91
73558;BME280;61829;53.286;10.434;2022-09-01T03:21:29;102172.69;;;12.24;78.67
73558;BME280;61829;53.286;10.434;2022-09-01T03:23:57;102169.28;;;12.22;79.23
73558;BME280;61829;53.286;10.434;2022-09-01T03:26:26;102165.06;;;12.20;79.15
73558;BME280;61829;53.286;10.434;2022-09-01T03:28:52;102164.53;;;12.16;79.39
73558;BME280;61829;53.286;10.434;2022-09-01T03:31:19;102164.03;;;12.12;79.18
73558;BME280;61829;53.286;10.434;2022-09-01T03:33:45;102164.69;;;12.06;79.49
73558;BME280;61829;53.286;10.434;2022-09-01T03:36:12;102162.13;;;12.05;79.27
73558;BME280;61829;53.286;10.434;2022-09-01T03:38:48;102168.69;;;12.02;79.21
73558;BME280;61829;53.286;10.434;2022-09-01T03:41:16;102163.94;;;11.96;79.64
73558;BME280;61829;53.286;10.434;2022-09-01T03:43:43;102162.41;;;11.94;79.49
73558;BME280;61829;53.286;10.434;2022-09-01T03:46:10;102166.13;;;11.93;79.21
73558;BME280;61829;53.286;10.434;2022-09-01T03:48:41;102165.63;;;11.89;79.60
73558;BME280;61829;53.286;10.434;2022-09-01T03:51:07;102165.06;;;11.85;80.07
73558;BME280;61829;53.286;10.434;2022-09-01T03:53:36;102166.19;;;11.83;80.73
73558;BME280;61829;53.286;10.434;2022-09-01T03:56:03;102162.97;;;11.79;80.84
73558;BME280;61829;53.286;10.434;2022-09-01T03:58:31;102160.59;;;11.76;80.96
73558;BME280;61829;53.286;10.434;2022-09-01T04:01:07;102164.31;;;11.75;81.89
73558;BME280;61829;53.286;10.434;2022-09-01T04:03:33;102165.31;;;11.74;81.23
73558;BME280;61829;53.286;10.434;2022-09-01T04:06:01;102163.09;;;11.69;81.54
73558;BME280;61829;53.286;10.434;2022-09-01T04:08:27;102167.63;;;11.69;80.30
73558;BME280;61829;53.286;10.434;2022-09-01T04:10:59;102162.41;;;11.67;80.66
73558;BME280;61829;53.286;10.434;2022-09-01T04:13:30;102170.97;;;11.63;80.48
73558;BME280;61829;53.286;10.434;2022-09-01T04:15:57;102167.44;;;11.62;80.32
73558;BME280;61829;53.286;10.434;2022-09-01T04:18:24;102164.03;;;11.60;80.05
73558;BME280;61829;53.286;10.434;2022-09-01T04:20:54;102169.44;;;11.60;80.31
73558;BME280;61829;53.286;10.434;2022-09-01T04:23:26;102169.94;;;11.56;80.71
73558;BME280;61829;53.286;10.434;2022-09-01T04:25:58;102166.00;;;11.50;80.52
73558;BME280;61829;53.286;10.434;2022-09-01T04:28:31;102162.78;;;11.46;80.80
73558;BME280;61829;53.286;10.434;2022-09-01T04:31:01;102170.00;;;11.46;80.49
73558;BME280;61829;53.286;10.434;2022-09-01T04:33:34;102174.75;;;11.44;80.41
73558;BME280;61829;53.286;10.434;2022-09-01T04:36:21;102170.34;;;11.43;79.98
73558;BME280;61829;53.286;10.434;2022-09-01T04:38:51;102167.94;;;11.40;79.74
73558;BME280;61829;53.286;10.434;2022-09-01T04:41:27;102167.94;;;11.40;79.79
73558;BME280;61829;53.286;10.434;2022-09-01T04:43:56;102170.66;;;11.40;79.28
73558;BME280;61829;53.286;10.434;2022-09-01T04:46:25;102170.81;;;11.38;78.77
73558;BME280;61829;53.286;10.434;2022-09-01T04:51:59;102163.72;;;11.37;79.15
73558;BME280;61829;53.286;10.434;2022-09-01T04:54:25;102162.03;;;11.36;78.53
73558;BME280;61829;53.286;10.434;2022-09-01T04:56:51;102163.72;;;11.37;78.53
73558;BME280;61829;53.286;10.434;2022-09-01T04:59:22;102166.25;;;11.39;78.71
73558;BME280;61829;53.286;10.434;2022-09-01T05:01:49;102162.41;;;11.41;79.15
73558;BME280;61829;53.286;10.434;2022-09-01T05:04:19;102160.22;;;11.45;78.98
73558;BME280;61829;53.286;10.434;2022-09-01T05:06:53;102165.50;;;11.55;78.25
73558;BME280;61829;53.286;10.434;2022-09-01T05:09:33;102171.09;;;11.79;77.44
73558;BME280;61829;53.286;10.434;2022-09-01T05:12:04;102170.66;;;12.18;77.38
73558;BME280;61829;53.286;10.434;2022-09-01T05:14:38;102169.94;;;12.67;76.19
73558;BME280;61829;53.286;10.434;2022-09-01T05:17:05;102165.28;;;13.18;74.40
73558;BME280;61829;53.286;10.434;2022-09-01T05:19:36;102175.72;;;13.70;72.89
73558;BME280;61829;53.286;10.434;2022-09-01T05:22:03;102172.53;;;14.22;71.82
73558;BME280;61829;53.286;10.434;2022-09-01T05:28:11;102174.19;;;15.17;69.40
73558;BME280;61829;53.286;10.434;2022-09-01T05:30:39;102173.25;;;15.62;68.13
73558;BME280;61829;53.286;10.434;2022-09-01T05:33:06;102173.91;;;16.02;66.56
73558;BME280;61829;53.286;10.434;2022-09-01T05:35:38;102171.88;;;16.41;65.45
73558;BME280;61829;53.286;10.434;2022-09-01T05:38:06;102175.28;;;16.79;64.02
73558;BME280;61829;53.286;10.434;2022-09-01T05:40:42;102173.47;;;17.08;63.01
73558;BME280;61829;53.286;10.434;2022-09-01T05:43:11;102175.38;;;17.35;62.03
73558;BME280;61829;53.286;10.434;2022-09-01T05:45:39;102176.41;;;17.56;60.99
73558;BME280;61829;53.286;10.434;2022-09-01T05:48:12;102180.44;;;17.94;60.26
73558;BME280;61829;53.286;10.434;2022-09-01T05:50:41;102179.66;;;18.42;58.56
73558;BME280;61829;53.286;10.434;2022-09-01T05:53:10;102184.41;;;18.75;57.93
73558;BME280;61829;53.286;10.434;2022-09-01T05:55:43;102189.69;;;18.83;57.42
73558;BME280;61829;53.286;10.434;2022-09-01T05:58:12;102194.50;;;18.74;57.68
73558;BME280;61829;53.286;10.434;2022-09-01T06:00:45;102192.47;;;19.03;56.64
73558;BME280;61829;53.286;10.434;2022-09-01T06:03:15;102195.78;;;18.85;57.16
73558;BME280;61829;53.286;10.434;2022-09-01T06:05:43;102190.22;;;18.65;57.59
73558;BME280;61829;53.286;10.434;2022-09-01T06:08:13;102186.31;;;18.74;57.68
73558;BME280;61829;53.286;10.434;2022-09-01T06:10:40;102198.13;;;18.95;57.19
73558;BME280;61829;53.286;10.434;2022-09-01T06:13:08;102200.28;;;19.39;55.94
73558;BME280;61829;53.286;10.434;2022-09-01T06:15:38;102189.34;;;19.72;54.99
73558;BME280;61829;53.286;10.434;2022-09-01T06:18:05;102187.66;;;19.71;54.85
73558;BME280;61829;53.286;10.434;2022-09-01T06:20:31;102186.78;;;19.91;54.40
73558;BME280;61829;53.286;10.434;2022-09-01T06:22:57;102183.63;;;19.94;54.68
73558;BME280;61829;53.286;10.434;2022-09-01T06:25:24;102186.94;;;20.16;53.51
73558;BME280;61829;53.286;10.434;2022-09-01T06:27:56;102187.97;;;20.22;53.70
73558;BME280;61829;53.286;10.434;2022-09-01T06:30:21;102185.28;;;20.08;53.80
73558;BME280;61829;53.286;10.434;2022-09-01T06:32:49;102186.28;;;20.21;54.27
73558;BME280;61829;53.286;10.434;2022-09-01T06:35:17;102186.94;;;20.09;54.15
73558;BME280;61829;53.286;10.434;2022-09-01T06:37:44;102190.94;;;20.07;54.38
73558;BME280;61829;53.286;10.434;2022-09-01T06:40:14;102192.41;;;20.16;54.67
73558;BME280;61829;53.286;10.434;2022-09-01T06:42:48;102184.59;;;20.71;53.40
73558;BME280;61829;53.286;10.434;2022-09-01T06:45:17;102197.06;;;21.30;52.71
73558;BME280;61829;53.286;10.434;2022-09-01T06:47:46;102188.97;;;21.67;50.57
73558;BME280;61829;53.286;10.434;2022-09-01T06:50:14;102195.94;;;21.45;50.67
73558;BME280;61829;53.286;10.434;2022-09-01T06:52:41;102190.97;;;21.60;50.52
73558;BME280;61829;53.286;10.434;2022-09-01T06:55:12;102195.97;;;21.88;49.79
73558;BME280;61829;53.286;10.434;2022-09-01T06:57:41;102190.31;;;21.83;49.68
73558;BME280;61829;53.286;10.434;2022-09-01T07:00:17;102198.94;;;21.62;49.91
73558;BME280;61829;53.286;10.434;2022-09-01T07:02:47;102196.81;;;21.64;50.15
73558;BME280;61829;53.286;10.434;2022-09-01T07:05:18;102202.84;;;21.72;50.23
73558;BME280;61829;53.286;10.434;2022-09-01T07:07:51;102207.06;;;21.50;50.16
73558;BME280;61829;53.286;10.434;2022-09-01T07:10:21;102201.84;;;21.67;50.25
73558;BME280;61829;53.286;10.434;2022-09-01T07:12:49;102202.19;;;21.77;49.80
73558;BME280;61829;53.286;10.434;2022-09-01T07:15:15;102193.50;;;21.98;49.18
73558;BME280;61829;53.286;10.434;2022-09-01T07:17:46;102206.34;;;21.80;49.08
73558;BME280;61829;53.286;10.434;2022-09-01T07:20:15;102199.56;;;21.39;49.10
73558;BME280;61829;53.286;10.434;2022-09-01T07:22:42;102203.41;;;21.81;49.70
73558;BME280;61829;53.286;10.434;2022-09-01T07:25:09;102209.56;;;22.20;48.54
73558;BME280;61829;53.286;10.434;2022-09-01T07:27:40;102200.31;;;22.33;46.75
73558;BME280;61829;53.286;10.434;2022-09-01T07:30:15;102205.03;;;22.07;47.04
73558;BME280;61829;53.286;10.434;2022-09-01T07:32:42;102213.22;;;22.14;47.00
73558;BME280;61829;53.286;10.434;2022-09-01T07:35:14;102208.97;;;22.36;46.66
73558;BME280;61829;53.286;10.434;2022-09-01T07:37:43;102211.84;;;22.60;46.54
73558;BME280;61829;53.286;10.434;2022-09-01T07:40:11;102209.38;;;23.00;45.49
73558;BME280;61829;53.286;10.434;2022-09-01T07:42:38;102215.00;;;23.36;44.29
73558;BME280;61829;53.286;10.434;2022-09-01T07:45:09;102217.13;;;23.45;43.38
73558;BME280;61829;53.286;10.434;2022-09-01T07:47:36;102214.38;;;23.34;43.45
73558;BME280;61829;53.286;10.434;2022-09-01T07:50:04;102210.09;;;22.96;44.13
73558;BME280;61829;53.286;10.434;2022-09-01T07:52:35;102210.13;;;23.07;43.46
73558;BME280;61829;53.286;10.434;2022-09-01T07:55:12;102207.59;;;23.06;43.33
73558;BME280;61829;53.286;10.434;2022-09-01T07:57:41;102214.72;;;22.65;44.29
73558;BME280;61829;53.286;10.434;2022-09-01T08:00:09;102210.06;;;22.66;44.15
73558;BME280;61829;53.286;10.434;2022-09-01T08:02:37;102217.16;;;22.73;43.90
73558;BME280;61829;53.286;10.434;2022-09-01T08:05:10;102218.19;;;22.91;44.17
73558;BME280;61829;53.286;10.434;2022-09-01T08:07:38;102210.06;;;23.26;42.87
73558;BME280;61829;53.286;10.434;2022-09-01T08:10:06;102214.34;;;23.10;41.64
73558;BME280;61829;53.286;10.434;2022-09-01T08:12:34;102213.09;;;23.06;41.80
73558;BME280;61829;53.286;10.434;2022-09-01T08:15:01;102227.44;;;23.50;41.37
73558;BME280;61829;53.286;10.434;2022-09-01T08:17:30;102224.09;;;23.48;41.65
73558;BME280;61829;53.286;10.434;2022-09-01T08:19:56;102220.63;;;23.52;40.64
73558;BME280;61829;53.286;10.434;2022-09-01T08:22:22;102226.09;;;23.41;39.99
73558;BME280;61829;53.286;10.434;2022-09-01T08:24:52;102221.66;;;23.28;40.68
73558;BME280;61829;53.286;10.434;2022-09-01T08:27:19;102224.53;;;23.21;39.82
73558;BME280;61829;53.286;10.434;2022-09-01T08:29:45;102223.56;;;23.27;40.42
73558;BME280;61829;53.286;10.434;2022-09-01T08:32:11;102226.50;;;23.56;40.01
73558;BME280;61829;53.286;10.434;2022-09-01T08:34:39;102225.88;;;23.66;39.53
73558;BME280;61829;53.286;10.434;2022-09-01T08:37:08;102221.50;;;23.88;39.86
73558;BME280;61829;53.286;10.434;2022-09-01T08:39:34;102209.38;;;24.13;37.80
73558;BME280;61829;53.286;10.434;2022-09-01T08:42:08;102219.78;;;24.46;38.89
73558;BME280;61829;53.286;10.434;2022-09-01T08:47:15;102218.75;;;23.77;37.77
73558;BME280;61829;53.286;10.434;2022-09-01T08:49:42;102222.63;;;23.34;38.38
73558;BME280;61829;53.286;10.434;2022-09-01T08:52:30;102212.97;;;23.01;39.48
73558;BME280;61829;53.286;10.434;2022-09-01T08:57:38;102220.88;;;23.09;38.91
73558;BME280;61829;53.286;10.434;2022-09-01T09:00:08;102220.31;;;22.89;38.25
73558;BME280;61829;53.286;10.434;2022-09-01T09:08:09;102215.59;;;22.96;36.92
73558;BME280;61829;53.286;10.434;2022-09-01T09:16:28;102207.66;;;22.88;38.16
73558;BME280;61829;53.286;10.434;2022-09-01T09:19:06;102208.56;;;23.00;37.48
73558;BME280;61829;53.286;10.434;2022-09-01T09:21:45;102214.13;;;22.93;36.45
73558;BME280;61829;53.286;10.434;2022-09-01T09:24:25;102202.19;;;22.69;37.44
73558;BME280;61829;53.286;10.434;2022-09-01T09:26:57;102199.63;;;22.86;36.19
73558;BME280;61829;53.286;10.434;2022-09-01T09:29:24;102204.66;;;23.19;36.11
73558;BME280;61829;53.286;10.434;2022-09-01T09:32:05;102192.84;;;23.30;36.37
73558;BME280;61829;53.286;10.434;2022-09-01T09:34:34;102199.69;;;23.63;36.87
73558;BME280;61829;53.286;10.434;2022-09-01T09:37:18;102195.03;;;23.64;36.53
73558;BME280;61829;53.286;10.434;2022-09-01T09:42:35;102197.22;;;23.73;38.17
73558;BME280;61829;53.286;10.434;2022-09-01T09:45:12;102201.06;;;23.72;36.44
73558;BME280;61829;53.286;10.434;2022-09-01T09:47:44;102195.53;;;23.84;35.83
73558;BME280;61829;53.286;10.434;2022-09-01T09:52:50;102185.41;;;24.25;33.81
73558;BME280;61829;53.286;10.434;2022-09-01T09:55:24;102191.09;;;23.95;33.70
73558;BME280;61829;53.286;10.434;2022-09-01T09:57:54;102178.78;;;23.74;34.68
73558;BME280;61829;53.286;10.434;2022-09-01T10:02:53;102175.19;;;23.85;34.53
73558;BME280;61829;53.286;10.434;2022-09-01T10:07:54;102179.19;;;24.18;33.84
73558;BME280;61829;53.286;10.434;2022-09-01T10:13:11;102159.09;;;24.58;33.50
73558;BME280;61829;53.286;10.434;2022-09-01T10:15:39;102166.75;;;24.56;33.78
73558;BME280;61829;53.286;10.434;2022-09-01T10:18:14;102159.72;;;24.36;32.03
73558;BME280;61829;53.286;10.434;2022-09-01T10:20:48;102158.78;;;24.31;33.26
73558;BME280;61829;53.286;10.434;2022-09-01T10:23:18;102151.38;;;24.60;33.09
73558;BME280;61829;53.286;10.434;2022-09-01T10:25:44;102152.97;;;24.56;33.38
73558;BME280;61829;53.286;10.434;2022-09-01T10:28:14;102148.69;;;24.77;32.13
73558;BME280;61829;53.286;10.434;2022-09-01T10:30:43;102155.91;;;25.12;32.31
73558;BME280;61829;53.286;10.434;2022-09-01T10:33:13;102160.88;;;25.26;32.40
73558;BME280;61829;53.286;10.434;2022-09-01T10:35:42;102157.53;;;25.24;31.14
73558;BME280;61829;53.286;10.434;2022-09-01T10:38:16;102144.19;;;25.04;32.40
73558;BME280;61829;53.286;10.434;2022-09-01T10:40:46;102149.28;;;24.79;31.17
73558;BME280;61829;53.286;10.434;2022-09-01T10:43:25;102152.91;;;24.39;33.90
73558;BME280;61829;53.286;10.434;2022-09-01T10:45:52;102148.44;;;24.09;32.77
73558;BME280;61829;53.286;10.434;2022-09-01T10:48:31;102152.34;;;24.25;33.43
73558;BME280;61829;53.286;10.434;2022-09-01T10:53:54;102143.97;;;24.20;33.33
73558;BME280;61829;53.286;10.434;2022-09-01T11:07:02;102155.25;;;24.59;31.33
73558;BME280;61829;53.286;10.434;2022-09-01T11:09:32;102148.13;;;23.82;32.65
73558;BME280;61829;53.286;10.434;2022-09-01T11:14:58;102129.66;;;24.06;32.83
73558;BME280;61829;53.286;10.434;2022-09-01T11:17:32;102136.69;;;24.42;33.32
73558;BME280;61829;53.286;10.434;2022-09-01T11:23:45;102125.09;;;24.52;31.71
73558;BME280;61829;53.286;10.434;2022-09-01T11:28:57;102121.84;;;25.18;29.68
73558;BME280;61829;53.286;10.434;2022-09-01T11:42:16;102115.53;;;25.39;30.31
73558;BME280;61829;53.286;10.434;2022-09-01T11:45:06;102116.53;;;25.33;29.81
73558;BME280;61829;53.286;10.434;2022-09-01T11:47:41;102114.03;;;25.48;29.58
73558;BME280;61829;53.286;10.434;2022-09-01T11:50:28;102111.09;;;25.55;30.10
73558;BME280;61829;53.286;10.434;2022-09-01T11:55:40;102115.28;;;25.80;28.97
73558;BME280;61829;53.286;10.434;2022-09-01T11:58:12;102110.81;;;25.95;27.91
73558;BME280;61829;53.286;10.434;2022-09-01T12:00:43;102120.97;;;25.90;28.96
73558;BME280;61829;53.286;10.434;2022-09-01T12:05:45;102106.56;;;26.10;27.43
73558;BME280;61829;53.286;10.434;2022-09-01T12:08:16;102111.59;;;25.91;26.62
73558;BME280;61829;53.286;10.434;2022-09-01T12:10:44;102103.63;;;25.56;27.63
73558;BME280;61829;53.286;10.434;2022-09-01T12:13:17;102102.16;;;25.48;29.86
73558;BME280;61829;53.286;10.434;2022-09-01T12:15:54;102102.16;;;25.70;29.10
73558;BME280;61829;53.286;10.434;2022-09-01T12:18:24;102104.13;;;25.52;28.25
73558;BME280;61829;53.286;10.434;2022-09-01T12:21:04;102109.47;;;25.20;28.92
73558;BME280;61829;53.286;10.434;2022-09-01T12:23:41;102105.94;;;24.91;31.04
73558;BME280;61829;53.286;10.434;2022-09-01T12:29:42;102100.03;;;24.71;31.84
73558;BME280;61829;53.286;10.434;2022-09-01T12:32:09;102092.94;;;24.58;32.31
73558;BME280;61829;53.286;10.434;2022-09-01T12:37:23;102100.09;;;24.02;31.37
73558;BME280;61829;53.286;10.434;2022-09-01T12:39:56;102090.78;;;23.67;32.91
73558;BME280;61829;53.286;10.434;2022-09-01T12:44:57;102090.56;;;23.57;32.87
73558;BME280;61829;53.286;10.434;2022-09-01T12:52:56;102093.91;;;23.59;33.15
73558;BME280;61829;53.286;10.434;2022-09-01T12:55:26;102092.00;;;23.60;34.50
73558;BME280;61829;53.286;10.434;2022-09-01T12:57:58;102084.47;;;23.67;33.37
73558;BME280;61829;53.286;10.434;2022-09-01T13:00:31;102091.78;;;23.61;34.26
73558;BME280;61829;53.286;10.434;2022-09-01T13:03:12;102093.19;;;23.52;33.45
73558;BME280;61829;53.286;10.434;2022-09-01T13:05:41;102084.72;;;23.30;34.38
73558;BME280;61829;53.286;10.434;2022-09-01T13:08:16;102083.31;;;23.16;34.08
73558;BME280;61829;53.286;10.434;2022-09-01T13:10:54;102087.22;;;22.96;35.41
73558;BME280;61829;53.286;10.434;2022-09-01T13:13:21;102090.03;;;22.90;35.59
73558;BME280;61829;53.286;10.434;2022-09-01T13:15:53;102085.56;;;22.65;34.91
73558;BME280;61829;53.286;10.434;2022-09-01T13:18:21;102079.81;;;22.55;35.06
73558;BME280;61829;53.286;10.434;2022-09-01T13:20:50;102073.94;;;22.51;35.79
73558;BME280;61829;53.286;10.434;2022-09-01T13:23:16;102078.34;;;22.52;35.46
73558;BME280;61829;53.286;10.434;2022-09-01T13:25:42;102078.00;;;22.49;35.94
73558;BME280;61829;53.286;10.434;2022-09-01T13:28:12;102083.16;;;22.57;36.15
73558;BME280;61829;53.286;10.434;2022-09-01T13:30:40;102069.88;;;22.42;35.84
73558;BME280;61829;53.286;10.434;2022-09-01T13:33:06;102084.13;;;22.32;35.95
73558;BME280;61829;53.286;10.434;2022-09-01T13:35:32;102084.94;;;22.21;36.62
73558;BME280;61829;53.286;10.434;2022-09-01T13:37:59;102069.97;;;22.17;37.23
73558;BME280;61829;53.286;10.434;2022-09-01T13:40:25;102070.03;;;22.10;37.37
73558;BME280;61829;53.286;10.434;2022-09-01T13:42:52;102077.94;;;21.88;37.34
73558;BME280;61829;53.286;10.434;2022-09-01T13:45:20;102073.81;;;21.79;37.69
73558;BME280;61829;53.286;10.434;2022-09-01T13:47:50;102064.31;;;21.63;38.26
73558;BME280;61829;53.286;10.434;2022-09-01T13:50:19;102063.69;;;21.61;37.85
73558;BME280;61829;53.286;10.434;2022-09-01T13:52:50;102060.16;;;21.54;38.90
73558;BME280;61829;53.286;10.434;2022-09-01T13:55:23;102062.53;;;21.50;39.05
73558;BME280;61829;53.286;10.434;2022-09-01T13:57:50;102054.91;;;21.52;39.33
73558;BME280;61829;53.286;10.434;2022-09-01T14:00:31;102060.09;;;21.61;39.24
73558;BME280;61829;53.286;10.434;2022-09-01T14:03:02;102061.47;;;21.70;38.93
73558;BME280;61829;53.286;10.434;2022-09-01T14:05:31;102050.56;;;21.82;39.04
73558;BME280;61829;53.286;10.434;2022-09-01T14:07:58;102047.66;;;21.95;38.12
73558;BME280;61829;53.286;10.434;2022-09-01T14:10:27;102045.22;;;22.05;38.31
73558;BME280;61829;53.286;10.434;2022-09-01T14:12:54;102042.34;;;22.30;38.42
73558;BME280;61829;53.286;10.434;2022-09-01T14:15:22;102038.78;;;22.41;37.37
73558;BME280;61829;53.286;10.434;2022-09-01T14:17:50;102031.91;;;22.51;38.35
73558;BME280;61829;53.286;10.434;2022-09-01T14:20:26;102043.63;;;22.58;38.06
73558;BME280;61829;53.286;10.434;2022-09-01T14:22:54;102028.78;;;22.59;38.90
73558;BME280;61829;53.286;10.434;2022-09-01T14:25:20;102033.69;;;22.57;39.21
73558;BME280;61829;53.286;10.434;2022-09-01T14:27:47;102042.13;;;22.44;39.40
73558;BME280;61829;53.286;10.434;2022-09-01T14:30:18;102042.00;;;22.38;39.18